sensor_id;sensor_type;location;lat;lon;timestamp;P1;durP1;ratioP1;P2;durP2;ratioP2
47713;SDS011;33475;46.614;13.888;2022-10-13T00:00:51;9.18;;;7.13;;
47713;SDS011;33475;46.614;13.888;2022-10-13T00:03:17;11.77;;;6.68;;
47713;SDS011;33475;46.614;13.888;2022-10-13T00:05:45;15.02;;;6.82;;
47713;SDS011;33475;46.614;13.888;2022-10-13T00:08:12;11.20;;;7.20;;
47713;SDS011;33475;46.614;13.888;2022-10-13T00:10:39;13.70;;;6.90;;
47713;SDS011;33475;46.614;13.888;2022-10-13T00:13:06;9.88;;;5.72;;
47713;SDS011;33475;46.614;13.888;2022-10-13T00:15:36;12.98;;;6.53;;
47713;SDS011;33475;46.614;13.888;2022-10-13T00:18:02;8.85;;;6.60;;
47713;SDS011;33475;46.614;13.888;2022-10-13T00:20:28;11.52;;;5.82;;
47713;SDS011;33475;46.614;13.888;2022-10-13T00:22:54;9.60;;;6.18;;
47713;SDS011;33475;46.614;13.888;2022-10-13T00:25:21;13.82;;;7.18;;
47713;SDS011;33475;46.614;13.888;2022-10-13T00:27:47;17.08;;;6.47;;
47713;SDS011;33475;46.614;13.888;2022-10-13T00:30:13;15.25;;;6.80;;
47713;SDS011;33475;46.614;13.888;2022-10-13T00:32:39;14.23;;;6.88;;
47713;SDS011;33475;46.614;13.888;2022-10-13T00:35:05;10.55;;;6.93;;
47713;SDS011;33475;46.614;13.888;2022-10-13T00:37:31;10.02;;;6.13;;
47713;SDS011;33475;46.614;13.888;2022-10-13T00:39:57;9.10;;;6.78;;
47713;SDS011;33475;46.614;13.888;2022-10-13T00:42:23;14.05;;;7.32;;
47713;SDS011;33475;46.614;13.888;2022-10-13T00:47:17;12.23;;;7.38;;
47713;SDS011;33475;46.614;13.888;2022-10-13T00:49:44;11.10;;;7.82;;
47713;SDS011;33475;46.614;13.888;2022-10-13T00:52:10;13.50;;;7.25;;
47713;SDS011;33475;46.614;13.888;2022-10-13T00:54:36;8.88;;;6.93;;
47713;SDS011;33475;46.614;13.888;2022-10-13T00:57:03;14.38;;;7.30;;
47713;SDS011;33475;46.614;13.888;2022-10-13T00:59:29;13.30;;;8.95;;
47713;SDS011;33475;46.614;13.888;2022-10-13T01:01:56;16.13;;;7.68;;
47713;SDS011;33475;46.614;13.888;2022-10-13T01:04:24;15.02;;;7.90;;
47713;SDS011;33475;46.614;13.888;2022-10-13T01:06:51;13.57;;;8.48;;
47713;SDS011;33475;46.614;13.888;2022-10-13T01:09:17;13.38;;;7.63;;
47713;SDS011;33475;46.614;13.888;2022-10-13T01:11:48;18.17;;;7.32;;
47713;SDS011;33475;46.614;13.888;2022-10-13T01:24:39;14.30;;;7.32;;
47713;SDS011;33475;46.614;13.888;2022-10-13T01:32:15;12.55;;;8.15;;
47713;SDS011;33475;46.614;13.888;2022-10-13T01:35:04;24.15;;;8.05;;
47713;SDS011;33475;46.614;13.888;2022-10-13T01:42:42;8.98;;;6.97;;
47713;SDS011;33475;46.614;13.888;2022-10-13T01:45:11;10.30;;;8.15;;
47713;SDS011;33475;46.614;13.888;2022-10-13T01:47:39;12.18;;;7.90;;
47713;SDS011;33475;46.614;13.888;2022-10-13T01:50:06;25.80;;;10.38;;
47713;SDS011;33475;46.614;13.888;2022-10-13T01:52:34;13.15;;;9.25;;
47713;SDS011;33475;46.614;13.888;2022-10-13T01:55:07;11.95;;;7.95;;
47713;SDS011;33475;46.614;13.888;2022-10-13T02:00:10;13.23;;;8.50;;
47713;SDS011;33475;46.614;13.888;2022-10-13T02:02:47;16.30;;;9.18;;
47713;SDS011;33475;46.614;13.888;2022-10-13T02:07:47;11.40;;;8.15;;
47713;SDS011;33475;46.614;13.888;2022-10-13T02:12:51;20.05;;;10.18;;
47713;SDS011;33475;46.614;13.888;2022-10-13T02:15:20;15.95;;;9.73;;
47713;SDS011;33475;46.614;13.888;2022-10-13T02:17:47;19.15;;;10.57;;
47713;SDS011;33475;46.614;13.888;2022-10-13T02:20:13;15.75;;;9.82;;
47713;SDS011;33475;46.614;13.888;2022-10-13T02:22:42;23.33;;;10.35;;
47713;SDS011;33475;46.614;13.888;2022-10-13T02:25:09;20.63;;;11.13;;
47713;SDS011;33475;46.614;13.888;2022-10-13T02:27:36;22.23;;;10.82;;
47713;SDS011;33475;46.614;13.888;2022-10-13T02:30:02;18.83;;;10.25;;
47713;SDS011;33475;46.614;13.888;2022-10-13T02:32:28;14.70;;;9.95;;
47713;SDS011;33475;46.614;13.888;2022-10-13T02:34:55;20.60;;;10.98;;
47713;SDS011;33475;46.614;13.888;2022-10-13T02:37:21;19.23;;;8.95;;
47713;SDS011;33475;46.614;13.888;2022-10-13T02:39:50;10.32;;;8.52;;
47713;SDS011;33475;46.614;13.888;2022-10-13T02:42:16;19.30;;;10.65;;
47713;SDS011;33475;46.614;13.888;2022-10-13T02:44:42;19.38;;;10.02;;
47713;SDS011;33475;46.614;13.888;2022-10-13T02:47:08;14.85;;;8.63;;
47713;SDS011;33475;46.614;13.888;2022-10-13T02:49:34;18.08;;;8.20;;
47713;SDS011;33475;46.614;13.888;2022-10-13T02:52:00;19.92;;;7.00;;
47713;SDS011;33475;46.614;13.888;2022-10-13T02:54:26;9.98;;;7.63;;
47713;SDS011;33475;46.614;13.888;2022-10-13T02:56:53;22.52;;;8.27;;
47713;SDS011;33475;46.614;13.888;2022-10-13T02:59:19;13.80;;;9.05;;
47713;SDS011;33475;46.614;13.888;2022-10-13T03:01:45;15.90;;;9.25;;
47713;SDS011;33475;46.614;13.888;2022-10-13T03:04:11;11.30;;;9.50;;
47713;SDS011;33475;46.614;13.888;2022-10-13T03:06:37;14.70;;;8.65;;
47713;SDS011;33475;46.614;13.888;2022-10-13T03:09:03;18.98;;;8.85;;
47713;SDS011;33475;46.614;13.888;2022-10-13T03:11:29;12.85;;;8.25;;
47713;SDS011;33475;46.614;13.888;2022-10-13T03:13:55;12.02;;;8.60;;
47713;SDS011;33475;46.614;13.888;2022-10-13T03:16:21;11.60;;;8.57;;
47713;SDS011;33475;46.614;13.888;2022-10-13T03:18:48;16.48;;;8.18;;
47713;SDS011;33475;46.614;13.888;2022-10-13T03:21:14;13.95;;;8.40;;
47713;SDS011;33475;46.614;13.888;2022-10-13T03:23:40;12.80;;;8.63;;
47713;SDS011;33475;46.614;13.888;2022-10-13T03:26:06;12.10;;;8.10;;
47713;SDS011;33475;46.614;13.888;2022-10-13T03:28:32;12.60;;;8.70;;
47713;SDS011;33475;46.614;13.888;2022-10-13T03:31:02;20.02;;;10.10;;
47713;SDS011;33475;46.614;13.888;2022-10-13T03:33:29;44.70;;;17.80;;
47713;SDS011;33475;46.614;13.888;2022-10-13T03:35:58;22.27;;;13.10;;
47713;SDS011;33475;46.614;13.888;2022-10-13T03:38:26;23.35;;;9.77;;
47713;SDS011;33475;46.614;13.888;2022-10-13T03:40:53;15.15;;;9.15;;
47713;SDS011;33475;46.614;13.888;2022-10-13T03:43:19;18.95;;;8.05;;
47713;SDS011;33475;46.614;13.888;2022-10-13T03:45:53;12.82;;;8.50;;
47713;SDS011;33475;46.614;13.888;2022-10-13T03:48:19;10.20;;;8.20;;
47713;SDS011;33475;46.614;13.888;2022-10-13T03:50:45;14.05;;;8.27;;
47713;SDS011;33475;46.614;13.888;2022-10-13T03:53:11;14.63;;;8.48;;
47713;SDS011;33475;46.614;13.888;2022-10-13T03:55:37;14.20;;;8.50;;
47713;SDS011;33475;46.614;13.888;2022-10-13T03:58:03;23.92;;;11.88;;
47713;SDS011;33475;46.614;13.888;2022-10-13T04:00:30;16.95;;;12.15;;
47713;SDS011;33475;46.614;13.888;2022-10-13T04:02:56;16.27;;;9.60;;
47713;SDS011;33475;46.614;13.888;2022-10-13T04:05:22;15.55;;;11.45;;
47713;SDS011;33475;46.614;13.888;2022-10-13T04:07:49;14.65;;;10.48;;
47713;SDS011;33475;46.614;13.888;2022-10-13T04:10:15;10.70;;;7.75;;
47713;SDS011;33475;46.614;13.888;2022-10-13T04:12:41;20.70;;;10.77;;
47713;SDS011;33475;46.614;13.888;2022-10-13T04:15:08;16.95;;;8.00;;
47713;SDS011;33475;46.614;13.888;2022-10-13T04:17:34;15.80;;;8.32;;
47713;SDS011;33475;46.614;13.888;2022-10-13T04:20:00;18.48;;;9.15;;
47713;SDS011;33475;46.614;13.888;2022-10-13T04:22:26;13.00;;;8.07;;
47713;SDS011;33475;46.614;13.888;2022-10-13T04:24:52;13.68;;;8.55;;
47713;SDS011;33475;46.614;13.888;2022-10-13T04:27:18;15.15;;;8.90;;
47713;SDS011;33475;46.614;13.888;2022-10-13T04:29:47;13.15;;;8.40;;
47713;SDS011;33475;46.614;13.888;2022-10-13T04:32:13;14.30;;;8.80;;
47713;SDS011;33475;46.614;13.888;2022-10-13T04:34:39;14.95;;;10.02;;
47713;SDS011;33475;46.614;13.888;2022-10-13T04:37:06;13.70;;;9.85;;
47713;SDS011;33475;46.614;13.888;2022-10-13T04:39:32;17.65;;;10.55;;
47713;SDS011;33475;46.614;13.888;2022-10-13T04:41:58;14.57;;;9.55;;
47713;SDS011;33475;46.614;13.888;2022-10-13T04:44:24;16.13;;;9.13;;
47713;SDS011;33475;46.614;13.888;2022-10-13T04:46:50;17.38;;;9.00;;
47713;SDS011;33475;46.614;13.888;2022-10-13T04:49:16;12.00;;;7.88;;
47713;SDS011;33475;46.614;13.888;2022-10-13T04:51:42;14.77;;;8.45;;
47713;SDS011;33475;46.614;13.888;2022-10-13T04:54:09;14.77;;;8.57;;
47713;SDS011;33475;46.614;13.888;2022-10-13T04:56:35;16.55;;;8.95;;
47713;SDS011;33475;46.614;13.888;2022-10-13T04:59:02;13.85;;;8.50;;
47713;SDS011;33475;46.614;13.888;2022-10-13T05:01:30;18.17;;;9.13;;
47713;SDS011;33475;46.614;13.888;2022-10-13T05:03:57;14.85;;;8.10;;
47713;SDS011;33475;46.614;13.888;2022-10-13T05:06:25;9.40;;;7.72;;
47713;SDS011;33475;46.614;13.888;2022-10-13T05:08:52;14.98;;;8.18;;
47713;SDS011;33475;46.614;13.888;2022-10-13T05:11:18;17.50;;;9.88;;
47713;SDS011;33475;46.614;13.888;2022-10-13T05:13:45;18.77;;;8.00;;
47713;SDS011;33475;46.614;13.888;2022-10-13T05:16:12;12.35;;;7.82;;
47713;SDS011;33475;46.614;13.888;2022-10-13T05:18:39;10.52;;;7.25;;
47713;SDS011;33475;46.614;13.888;2022-10-13T05:21:09;13.10;;;7.47;;
47713;SDS011;33475;46.614;13.888;2022-10-13T05:23:36;15.68;;;7.35;;
47713;SDS011;33475;46.614;13.888;2022-10-13T05:26:03;12.52;;;7.90;;
47713;SDS011;33475;46.614;13.888;2022-10-13T05:28:29;11.05;;;6.50;;
47713;SDS011;33475;46.614;13.888;2022-10-13T05:30:55;15.35;;;7.82;;
47713;SDS011;33475;46.614;13.888;2022-10-13T05:33:22;12.70;;;8.63;;
47713;SDS011;33475;46.614;13.888;2022-10-13T05:35:48;11.20;;;8.60;;
47713;SDS011;33475;46.614;13.888;2022-10-13T05:38:14;10.98;;;8.35;;
47713;SDS011;33475;46.614;13.888;2022-10-13T05:40:40;12.10;;;7.60;;
47713;SDS011;33475;46.614;13.888;2022-10-13T05:43:06;23.77;;;7.65;;
47713;SDS011;33475;46.614;13.888;2022-10-13T05:45:32;10.30;;;7.13;;
47713;SDS011;33475;46.614;13.888;2022-10-13T05:47:58;12.73;;;7.68;;
47713;SDS011;33475;46.614;13.888;2022-10-13T05:50:24;48.60;;;9.00;;
47713;SDS011;33475;46.614;13.888;2022-10-13T05:52:51;59.83;;;8.95;;
47713;SDS011;33475;46.614;13.888;2022-10-13T05:55:17;56.40;;;9.75;;
47713;SDS011;33475;46.614;13.888;2022-10-13T05:57:44;31.10;;;10.18;;
47713;SDS011;33475;46.614;13.888;2022-10-13T06:00:13;50.17;;;9.35;;
47713;SDS011;33475;46.614;13.888;2022-10-13T06:02:53;11.77;;;8.60;;
47713;SDS011;33475;46.614;13.888;2022-10-13T06:05:21;13.20;;;10.38;;
47713;SDS011;33475;46.614;13.888;2022-10-13T06:07:48;16.65;;;9.75;;
47713;SDS011;33475;46.614;13.888;2022-10-13T06:10:15;25.58;;;9.88;;
47713;SDS011;33475;46.614;13.888;2022-10-13T06:12:41;85.57;;;11.48;;
47713;SDS011;33475;46.614;13.888;2022-10-13T06:15:07;76.50;;;11.65;;
47713;SDS011;33475;46.614;13.888;2022-10-13T06:17:37;77.55;;;10.13;;
47713;SDS011;33475;46.614;13.888;2022-10-13T06:20:04;159.60;;;10.95;;
47713;SDS011;33475;46.614;13.888;2022-10-13T06:22:31;111.53;;;10.93;;
47713;SDS011;33475;46.614;13.888;2022-10-13T06:24:58;40.83;;;9.85;;
47713;SDS011;33475;46.614;13.888;2022-10-13T06:27:24;66.63;;;11.48;;
47713;SDS011;33475;46.614;13.888;2022-10-13T06:29:50;47.67;;;10.73;;
47713;SDS011;33475;46.614;13.888;2022-10-13T06:32:16;106.07;;;9.93;;
47713;SDS011;33475;46.614;13.888;2022-10-13T06:34:42;42.53;;;9.45;;
47713;SDS011;33475;46.614;13.888;2022-10-13T06:37:09;22.55;;;9.15;;
47713;SDS011;33475;46.614;13.888;2022-10-13T06:39:35;44.00;;;10.18;;
47713;SDS011;33475;46.614;13.888;2022-10-13T06:42:01;56.30;;;9.27;;
47713;SDS011;33475;46.614;13.888;2022-10-13T06:44:27;22.38;;;9.10;;
47713;SDS011;33475;46.614;13.888;2022-10-13T06:46:53;20.35;;;9.68;;
47713;SDS011;33475;46.614;13.888;2022-10-13T06:49:19;19.50;;;8.93;;
47713;SDS011;33475;46.614;13.888;2022-10-13T06:51:45;12.80;;;9.05;;
47713;SDS011;33475;46.614;13.888;2022-10-13T06:54:11;9.60;;;8.10;;
47713;SDS011;33475;46.614;13.888;2022-10-13T06:56:37;11.48;;;8.30;;
47713;SDS011;33475;46.614;13.888;2022-10-13T06:59:03;8.50;;;7.55;;
47713;SDS011;33475;46.614;13.888;2022-10-13T07:01:29;14.90;;;7.05;;
47713;SDS011;33475;46.614;13.888;2022-10-13T07:03:56;7.72;;;7.03;;
47713;SDS011;33475;46.614;13.888;2022-10-13T07:06:22;9.80;;;6.53;;
47713;SDS011;33475;46.614;13.888;2022-10-13T07:08:48;8.55;;;6.07;;
47713;SDS011;33475;46.614;13.888;2022-10-13T07:11:14;9.32;;;7.05;;
47713;SDS011;33475;46.614;13.888;2022-10-13T07:13:43;9.60;;;6.68;;
47713;SDS011;33475;46.614;13.888;2022-10-13T07:16:09;15.30;;;7.32;;
47713;SDS011;33475;46.614;13.888;2022-10-13T07:18:35;10.30;;;7.25;;
47713;SDS011;33475;46.614;13.888;2022-10-13T07:21:02;9.65;;;7.18;;
47713;SDS011;33475;46.614;13.888;2022-10-13T07:23:30;10.48;;;6.72;;
47713;SDS011;33475;46.614;13.888;2022-10-13T07:25:56;8.57;;;6.65;;
47713;SDS011;33475;46.614;13.888;2022-10-13T07:28:23;7.18;;;6.47;;
47713;SDS011;33475;46.614;13.888;2022-10-13T07:30:50;8.27;;;7.45;;
47713;SDS011;33475;46.614;13.888;2022-10-13T07:33:17;9.43;;;7.20;;
47713;SDS011;33475;46.614;13.888;2022-10-13T07:35:43;8.82;;;7.40;;
47713;SDS011;33475;46.614;13.888;2022-10-13T07:38:09;8.60;;;7.05;;
47713;SDS011;33475;46.614;13.888;2022-10-13T07:40:36;8.00;;;6.45;;
47713;SDS011;33475;46.614;13.888;2022-10-13T07:43:03;7.18;;;6.57;;
47713;SDS011;33475;46.614;13.888;2022-10-13T07:45:29;13.32;;;6.15;;
47713;SDS011;33475;46.614;13.888;2022-10-13T07:47:55;10.93;;;6.43;;
47713;SDS011;33475;46.614;13.888;2022-10-13T07:50:21;81.95;;;47.38;;
47713;SDS011;33475;46.614;13.888;2022-10-13T07:52:48;13.18;;;6.80;;
47713;SDS011;33475;46.614;13.888;2022-10-13T07:55:14;6.68;;;5.75;;
47713;SDS011;33475;46.614;13.888;2022-10-13T07:57:40;6.97;;;6.28;;
47713;SDS011;33475;46.614;13.888;2022-10-13T08:00:06;7.97;;;5.45;;
47713;SDS011;33475;46.614;13.888;2022-10-13T08:02:33;6.13;;;5.60;;
47713;SDS011;33475;46.614;13.888;2022-10-13T08:05:01;6.43;;;5.82;;
47713;SDS011;33475;46.614;13.888;2022-10-13T08:07:27;10.30;;;6.53;;
47713;SDS011;33475;46.614;13.888;2022-10-13T08:09:53;9.40;;;5.80;;
47713;SDS011;33475;46.614;13.888;2022-10-13T08:12:19;7.18;;;5.47;;
47713;SDS011;33475;46.614;13.888;2022-10-13T08:14:45;7.80;;;6.65;;
47713;SDS011;33475;46.614;13.888;2022-10-13T08:17:15;7.45;;;5.63;;
47713;SDS011;33475;46.614;13.888;2022-10-13T08:19:41;6.60;;;5.80;;
47713;SDS011;33475;46.614;13.888;2022-10-13T08:22:08;7.70;;;5.95;;
47713;SDS011;33475;46.614;13.888;2022-10-13T08:24:35;8.07;;;6.55;;
47713;SDS011;33475;46.614;13.888;2022-10-13T08:27:01;6.13;;;5.53;;
47713;SDS011;33475;46.614;13.888;2022-10-13T08:29:27;9.32;;;7.22;;
47713;SDS011;33475;46.614;13.888;2022-10-13T08:31:53;7.25;;;5.90;;
47713;SDS011;33475;46.614;13.888;2022-10-13T08:34:20;8.00;;;5.88;;
47713;SDS011;33475;46.614;13.888;2022-10-13T08:36:47;6.18;;;5.40;;
47713;SDS011;33475;46.614;13.888;2022-10-13T08:39:16;6.13;;;5.35;;
47713;SDS011;33475;46.614;13.888;2022-10-13T08:41:42;8.07;;;5.32;;
47713;SDS011;33475;46.614;13.888;2022-10-13T08:44:13;6.97;;;5.70;;
47713;SDS011;33475;46.614;13.888;2022-10-13T08:46:53;7.47;;;4.80;;
47713;SDS011;33475;46.614;13.888;2022-10-13T08:49:22;7.80;;;5.13;;
47713;SDS011;33475;46.614;13.888;2022-10-13T08:51:48;5.47;;;4.95;;
47713;SDS011;33475;46.614;13.888;2022-10-13T08:54:15;7.72;;;5.57;;
47713;SDS011;33475;46.614;13.888;2022-10-13T08:56:42;6.32;;;5.68;;
47713;SDS011;33475;46.614;13.888;2022-10-13T08:59:13;9.00;;;6.15;;
47713;SDS011;33475;46.614;13.888;2022-10-13T09:01:41;10.15;;;6.88;;
47713;SDS011;33475;46.614;13.888;2022-10-13T09:04:23;6.45;;;5.63;;
47713;SDS011;33475;46.614;13.888;2022-10-13T09:06:55;8.52;;;5.78;;
47713;SDS011;33475;46.614;13.888;2022-10-13T09:09:23;11.68;;;6.20;;
47713;SDS011;33475;46.614;13.888;2022-10-13T09:11:49;7.63;;;5.75;;
47713;SDS011;33475;46.614;13.888;2022-10-13T09:16:46;8.63;;;5.38;;
47713;SDS011;33475;46.614;13.888;2022-10-13T09:21:53;5.35;;;4.63;;
47713;SDS011;33475;46.614;13.888;2022-10-13T09:24:20;6.22;;;4.45;;
47713;SDS011;33475;46.614;13.888;2022-10-13T09:26:47;8.55;;;4.82;;
47713;SDS011;33475;46.614;13.888;2022-10-13T09:29:15;7.57;;;4.28;;
47713;SDS011;33475;46.614;13.888;2022-10-13T09:31:42;5.75;;;4.60;;
47713;SDS011;33475;46.614;13.888;2022-10-13T09:36:37;8.57;;;4.90;;
47713;SDS011;33475;46.614;13.888;2022-10-13T09:39:13;5.10;;;4.35;;
47713;SDS011;33475;46.614;13.888;2022-10-13T09:41:41;7.93;;;4.15;;
47713;SDS011;33475;46.614;13.888;2022-10-13T09:47:03;4.60;;;3.35;;
47713;SDS011;33475;46.614;13.888;2022-10-13T09:49:39;5.35;;;3.90;;
47713;SDS011;33475;46.614;13.888;2022-10-13T09:52:13;5.93;;;3.83;;
47713;SDS011;33475;46.614;13.888;2022-10-13T09:54:44;5.63;;;4.00;;
47713;SDS011;33475;46.614;13.888;2022-10-13T09:57:13;6.85;;;3.65;;
47713;SDS011;33475;46.614;13.888;2022-10-13T10:02:22;4.05;;;3.30;;
47713;SDS011;33475;46.614;13.888;2022-10-13T10:04:49;5.50;;;2.85;;
47713;SDS011;33475;46.614;13.888;2022-10-13T10:07:18;5.47;;;3.28;;
47713;SDS011;33475;46.614;13.888;2022-10-13T10:09:55;5.13;;;3.20;;
47713;SDS011;33475;46.614;13.888;2022-10-13T10:12:25;5.95;;;2.75;;
47713;SDS011;33475;46.614;13.888;2022-10-13T10:14:52;4.72;;;2.95;;
47713;SDS011;33475;46.614;13.888;2022-10-13T10:27:51;5.30;;;3.40;;
47713;SDS011;33475;46.614;13.888;2022-10-13T10:30:20;3.10;;;2.80;;
47713;SDS011;33475;46.614;13.888;2022-10-13T10:43:33;8.75;;;3.45;;
47713;SDS011;33475;46.614;13.888;2022-10-13T10:46:00;4.28;;;2.55;;
47713;SDS011;33475;46.614;13.888;2022-10-13T10:48:30;4.32;;;2.63;;
47713;SDS011;33475;46.614;13.888;2022-10-13T10:50:58;3.70;;;2.72;;
47713;SDS011;33475;46.614;13.888;2022-10-13T11:01:19;3.42;;;2.80;;
47713;SDS011;33475;46.614;13.888;2022-10-13T11:03:55;5.53;;;2.80;;
47713;SDS011;33475;46.614;13.888;2022-10-13T11:06:24;5.53;;;2.70;;
47713;SDS011;33475;46.614;13.888;2022-10-13T11:08:56;8.98;;;2.83;;
47713;SDS011;33475;46.614;13.888;2022-10-13T11:16:40;5.65;;;2.28;;
47713;SDS011;33475;46.614;13.888;2022-10-13T11:27:23;6.53;;;2.47;;
47713;SDS011;33475;46.614;13.888;2022-10-13T11:37:42;7.68;;;2.45;;
47713;SDS011;33475;46.614;13.888;2022-10-13T11:58:18;4.53;;;2.40;;
47713;SDS011;33475;46.614;13.888;2022-10-13T12:00:56;7.30;;;3.17;;
47713;SDS011;33475;46.614;13.888;2022-10-13T12:03:33;9.48;;;2.28;;
47713;SDS011;33475;46.614;13.888;2022-10-13T12:06:04;7.00;;;2.40;;
47713;SDS011;33475;46.614;13.888;2022-10-13T12:08:32;3.35;;;2.50;;
47713;SDS011;33475;46.614;13.888;2022-10-13T12:10:59;6.05;;;2.60;;
47713;SDS011;33475;46.614;13.888;2022-10-13T12:13:29;9.27;;;2.90;;
47713;SDS011;33475;46.614;13.888;2022-10-13T12:21:13;4.28;;;2.20;;
47713;SDS011;33475;46.614;13.888;2022-10-13T12:23:41;6.03;;;2.60;;
47713;SDS011;33475;46.614;13.888;2022-10-13T12:26:14;5.85;;;2.75;;
47713;SDS011;33475;46.614;13.888;2022-10-13T12:31:15;4.10;;;2.50;;
47713;SDS011;33475;46.614;13.888;2022-10-13T12:33:42;3.40;;;2.53;;
47713;SDS011;33475;46.614;13.888;2022-10-13T12:36:13;4.53;;;2.50;;
47713;SDS011;33475;46.614;13.888;2022-10-13T12:38:41;3.83;;;2.50;;
47713;SDS011;33475;46.614;13.888;2022-10-13T12:41:08;5.38;;;2.75;;
47713;SDS011;33475;46.614;13.888;2022-10-13T12:43:34;6.32;;;2.65;;
47713;SDS011;33475;46.614;13.888;2022-10-13T12:46:01;3.75;;;2.47;;
47713;SDS011;33475;46.614;13.888;2022-10-13T12:48:30;5.53;;;2.72;;
47713;SDS011;33475;46.614;13.888;2022-10-13T12:51:17;11.23;;;2.60;;
47713;SDS011;33475;46.614;13.888;2022-10-13T12:53:42;4.55;;;2.90;;
47713;SDS011;33475;46.614;13.888;2022-10-13T12:59:12;7.15;;;2.30;;
47713;SDS011;33475;46.614;13.888;2022-10-13T13:01:39;8.20;;;2.90;;
47713;SDS011;33475;46.614;13.888;2022-10-13T13:04:16;3.33;;;2.17;;
47713;SDS011;33475;46.614;13.888;2022-10-13T13:09:20;7.50;;;2.50;;
47713;SDS011;33475;46.614;13.888;2022-10-13T13:11:46;6.05;;;2.92;;
47713;SDS011;33475;46.614;13.888;2022-10-13T13:19:33;7.43;;;2.47;;
47713;SDS011;33475;46.614;13.888;2022-10-13T13:21:59;5.28;;;2.97;;
47713;SDS011;33475;46.614;13.888;2022-10-13T13:24:25;5.10;;;2.25;;
47713;SDS011;33475;46.614;13.888;2022-10-13T13:26:52;5.68;;;2.70;;
47713;SDS011;33475;46.614;13.888;2022-10-13T13:29:18;8.00;;;2.80;;
47713;SDS011;33475;46.614;13.888;2022-10-13T13:31:44;5.85;;;2.55;;
47713;SDS011;33475;46.614;13.888;2022-10-13T13:34:10;6.63;;;2.47;;
47713;SDS011;33475;46.614;13.888;2022-10-13T13:36:36;4.85;;;2.50;;
47713;SDS011;33475;46.614;13.888;2022-10-13T13:39:02;12.95;;;2.70;;
47713;SDS011;33475;46.614;13.888;2022-10-13T13:41:28;4.43;;;2.20;;
47713;SDS011;33475;46.614;13.888;2022-10-13T13:43:55;8.25;;;2.90;;
47713;SDS011;33475;46.614;13.888;2022-10-13T13:46:22;3.55;;;2.60;;
47713;SDS011;33475;46.614;13.888;2022-10-13T13:48:49;6.50;;;2.33;;
47713;SDS011;33475;46.614;13.888;2022-10-13T13:51:15;5.80;;;2.50;;
47713;SDS011;33475;46.614;13.888;2022-10-13T13:53:42;7.07;;;2.70;;
47713;SDS011;33475;46.614;13.888;2022-10-13T13:56:14;6.65;;;2.67;;
47713;SDS011;33475;46.614;13.888;2022-10-13T13:58:41;4.93;;;2.72;;
47713;SDS011;33475;46.614;13.888;2022-10-13T14:01:08;8.85;;;2.67;;
47713;SDS011;33475;46.614;13.888;2022-10-13T14:03:35;4.65;;;2.90;;
47713;SDS011;33475;46.614;13.888;2022-10-13T14:06:01;5.72;;;2.20;;
47713;SDS011;33475;46.614;13.888;2022-10-13T14:08:33;5.60;;;2.58;;
47713;SDS011;33475;46.614;13.888;2022-10-13T14:11:05;5.43;;;2.67;;
47713;SDS011;33475;46.614;13.888;2022-10-13T14:13:32;5.47;;;2.50;;
47713;SDS011;33475;46.614;13.888;2022-10-13T14:15:58;11.30;;;3.03;;
47713;SDS011;33475;46.614;13.888;2022-10-13T14:18:26;5.75;;;3.35;;
47713;SDS011;33475;46.614;13.888;2022-10-13T14:20:52;14.07;;;3.35;;
47713;SDS011;33475;46.614;13.888;2022-10-13T14:23:18;10.13;;;2.90;;
47713;SDS011;33475;46.614;13.888;2022-10-13T14:25:44;7.38;;;2.63;;
47713;SDS011;33475;46.614;13.888;2022-10-13T14:28:10;5.18;;;3.03;;
47713;SDS011;33475;46.614;13.888;2022-10-13T14:30:40;6.78;;;3.42;;
47713;SDS011;33475;46.614;13.888;2022-10-13T14:33:07;8.95;;;3.20;;
47713;SDS011;33475;46.614;13.888;2022-10-13T14:35:33;5.95;;;2.72;;
47713;SDS011;33475;46.614;13.888;2022-10-13T14:37:59;5.15;;;2.83;;
47713;SDS011;33475;46.614;13.888;2022-10-13T14:40:25;8.88;;;3.53;;
47713;SDS011;33475;46.614;13.888;2022-10-13T14:42:52;12.25;;;4.00;;
47713;SDS011;33475;46.614;13.888;2022-10-13T14:45:18;11.75;;;3.50;;
47713;SDS011;33475;46.614;13.888;2022-10-13T14:47:44;7.45;;;3.70;;
47713;SDS011;33475;46.614;13.888;2022-10-13T14:50:10;9.95;;;3.30;;
47713;SDS011;33475;46.614;13.888;2022-10-13T14:52:37;11.68;;;3.22;;
47713;SDS011;33475;46.614;13.888;2022-10-13T14:55:03;5.57;;;4.13;;
47713;SDS011;33475;46.614;13.888;2022-10-13T14:57:29;8.18;;;3.70;;
47713;SDS011;33475;46.614;13.888;2022-10-13T14:59:56;6.45;;;3.42;;
47713;SDS011;33475;46.614;13.888;2022-10-13T15:02:22;6.63;;;3.55;;
47713;SDS011;33475;46.614;13.888;2022-10-13T15:04:48;4.85;;;3.97;;
47713;SDS011;33475;46.614;13.888;2022-10-13T15:07:14;10.80;;;4.40;;
47713;SDS011;33475;46.614;13.888;2022-10-13T15:09:40;8.98;;;4.45;;
47713;SDS011;33475;46.614;13.888;2022-10-13T15:12:06;10.27;;;4.45;;
47713;SDS011;33475;46.614;13.888;2022-10-13T15:14:32;11.18;;;4.95;;
47713;SDS011;33475;46.614;13.888;2022-10-13T15:16:58;10.98;;;4.40;;
47713;SDS011;33475;46.614;13.888;2022-10-13T15:19:25;10.63;;;4.75;;
47713;SDS011;33475;46.614;13.888;2022-10-13T15:21:51;11.15;;;6.20;;
47713;SDS011;33475;46.614;13.888;2022-10-13T15:24:17;9.55;;;5.80;;
47713;SDS011;33475;46.614;13.888;2022-10-13T15:26:43;10.65;;;5.10;;
47713;SDS011;33475;46.614;13.888;2022-10-13T15:29:09;9.18;;;5.45;;
47713;SDS011;33475;46.614;13.888;2022-10-13T15:31:35;13.18;;;5.30;;
47713;SDS011;33475;46.614;13.888;2022-10-13T15:34:01;7.55;;;4.95;;
47713;SDS011;33475;46.614;13.888;2022-10-13T15:36:27;15.05;;;5.65;;
47713;SDS011;33475;46.614;13.888;2022-10-13T15:38:53;8.93;;;6.28;;
47713;SDS011;33475;46.614;13.888;2022-10-13T15:41:20;8.80;;;6.32;;
47713;SDS011;33475;46.614;13.888;2022-10-13T15:43:47;22.25;;;5.93;;
47713;SDS011;33475;46.614;13.888;2022-10-13T15:46:14;11.50;;;5.47;;
47713;SDS011;33475;46.614;13.888;2022-10-13T15:48:48;8.95;;;5.05;;
47713;SDS011;33475;46.614;13.888;2022-10-13T15:51:15;13.85;;;5.60;;
47713;SDS011;33475;46.614;13.888;2022-10-13T15:53:43;7.75;;;6.10;;
47713;SDS011;33475;46.614;13.888;2022-10-13T15:56:10;17.98;;;9.13;;
47713;SDS011;33475;46.614;13.888;2022-10-13T15:58:36;29.17;;;13.65;;
47713;SDS011;33475;46.614;13.888;2022-10-13T16:01:06;30.00;;;17.63;;
47713;SDS011;33475;46.614;13.888;2022-10-13T16:03:32;31.02;;;13.65;;
47713;SDS011;33475;46.614;13.888;2022-10-13T16:06:01;21.40;;;10.73;;
47713;SDS011;33475;46.614;13.888;2022-10-13T16:08:27;14.07;;;8.13;;
47713;SDS011;33475;46.614;13.888;2022-10-13T16:10:53;9.85;;;6.90;;
47713;SDS011;33475;46.614;13.888;2022-10-13T16:13:20;9.68;;;7.05;;
47713;SDS011;33475;46.614;13.888;2022-10-13T16:15:55;8.45;;;5.82;;
47713;SDS011;33475;46.614;13.888;2022-10-13T16:18:22;28.00;;;15.13;;
47713;SDS011;33475;46.614;13.888;2022-10-13T16:20:48;28.55;;;13.77;;
47713;SDS011;33475;46.614;13.888;2022-10-13T16:23:14;30.33;;;15.43;;
47713;SDS011;33475;46.614;13.888;2022-10-13T16:25:41;25.38;;;13.80;;
47713;SDS011;33475;46.614;13.888;2022-10-13T16:28:07;18.25;;;10.27;;
47713;SDS011;33475;46.614;13.888;2022-10-13T16:30:34;35.80;;;20.48;;
47713;SDS011;33475;46.614;13.888;2022-10-13T16:33:01;37.28;;;17.15;;
47713;SDS011;33475;46.614;13.888;2022-10-13T16:35:27;16.17;;;5.82;;
47713;SDS011;33475;46.614;13.888;2022-10-13T16:37:53;10.13;;;4.72;;